Time;durP1;ratioP1;P1;durP2;ratioP2;P2;SDS_P1;SDS_P2;PMS_P1;PMS_P2;Temp;Humidity;BMP_temperature;BMP_pressure;BME280_temperature;BME280_humidity;BME280_pressure;Samples;Min_cycle;Max_cycle;Signal;HPM_P1;HPM_P2
2023/09/26 00:02:14;;;;;;;6.53;4.73;;;11.60;99.90;;;;;;5073518;28;20829;-62
2023/09/26 00:04:41;;;;;;;5.70;4.53;;;11.60;99.90;;;;;;5073475;28;20816;-61
2023/09/26 00:07:08;;;;;;;5.13;4.63;;;11.60;99.90;;;;;;5073152;28;20436;-61
2023/09/26 00:09:36;;;;;;;6.43;4.97;;;11.50;99.90;;;;;;5073190;28;20938;-61
2023/09/26 00:12:03;;;;;;;4.80;4.30;;;11.60;99.90;;;;;;5073315;28;20471;-61
2023/09/26 00:14:30;;;;;;;6.00;4.60;;;11.50;99.90;;;;;;5073450;28;20452;-60
2023/09/26 00:16:56;;;;;;;4.60;4.13;;;11.50;99.90;;;;;;5074074;28;20486;-61
2023/09/26 00:19:23;;;;;;;5.13;4.73;;;11.60;99.90;;;;;;5074840;28;20447;-61
2023/09/26 00:21:50;;;;;;;7.50;4.60;;;11.60;99.90;;;;;;5074749;28;20459;-61
2023/09/26 00:24:17;;;;;;;5.43;4.93;;;11.60;99.90;;;;;;5074813;28;20444;-61
2023/09/26 00:26:45;;;;;;;7.80;4.87;;;11.50;99.90;;;;;;5074580;28;20469;-61
2023/09/26 00:29:11;;;;;;;5.03;4.53;;;11.50;99.90;;;;;;5078571;28;20446;-61
2023/09/26 00:31:38;;;;;;;5.70;5.17;;;11.50;99.90;;;;;;5079707;28;20489;-61
2023/09/26 00:34:05;;;;;;;6.17;5.40;;;11.50;99.90;;;;;;5077588;28;20439;-60
2023/09/26 00:36:32;;;;;;;7.40;4.73;;;11.50;99.90;;;;;;5078019;28;20475;-61
2023/09/26 00:38:59;;;;;;;5.30;4.80;;;11.50;99.90;;;;;;5078413;28;20812;-61
2023/09/26 00:41:26;;;;;;;5.77;5.27;;;11.50;99.90;;;;;;5078240;28;20466;-61
2023/09/26 00:43:54;;;;;;;8.17;5.57;;;11.40;99.90;;;;;;5077606;28;20493;-62
2023/09/26 00:46:21;;;;;;;5.20;4.70;;;11.40;99.90;;;;;;5077359;28;20448;-61
2023/09/26 00:48:48;;;;;;;5.70;5.10;;;11.40;99.90;;;;;;5077285;28;20445;-62
2023/09/26 00:51:14;;;;;;;6.03;5.53;;;11.40;99.90;;;;;;5077322;28;20459;-62
2023/09/26 00:53:42;;;;;;;6.57;6.00;;;11.40;99.90;;;;;;5077176;28;20436;-61
2023/09/26 00:56:10;;;;;;;5.43;4.90;;;11.30;99.90;;;;;;5077350;28;21016;-61
2023/09/26 00:58:38;;;;;;;5.67;5.17;;;11.30;99.90;;;;;;5077236;28;20479;-62
2023/09/26 01:01:06;;;;;;;5.40;4.90;;;11.30;99.90;;;;;;5077257;28;20950;-61
2023/09/26 01:03:34;;;;;;;6.57;5.80;;;11.30;99.90;;;;;;5077092;28;20443;-62
2023/09/26 01:06:03;;;;;;;6.57;5.97;;;11.20;99.90;;;;;;5076586;28;20527;-62
2023/09/26 01:08:30;;;;;;;5.70;5.07;;;11.20;99.90;;;;;;5076334;28;20466;-62
2023/09/26 01:10:58;;;;;;;6.17;4.97;;;11.20;99.90;;;;;;5075929;28;20459;-61
2023/09/26 01:13:24;;;;;;;6.90;5.40;;;11.20;99.90;;;;;;5076756;28;20440;-61
2023/09/26 01:15:51;;;;;;;6.53;5.60;;;11.20;99.90;;;;;;5075922;28;20458;-61
2023/09/26 01:18:23;;;;;;;6.17;5.50;;;11.20;99.90;;;;;;5076314;28;20570;-61
2023/09/26 01:20:50;;;;;;;6.00;5.40;;;11.20;99.90;;;;;;5076101;28;20433;-61
2023/09/26 01:23:18;;;;;;;6.30;4.30;;;11.20;99.90;;;;;;5076007;28;20439;-62
2023/09/26 01:25:46;;;;;;;5.63;5.17;;;11.20;99.90;;;;;;5075669;28;20809;-61
2023/09/26 01:28:17;;;;;;;6.77;6.03;;;11.10;99.90;;;;;;5075737;28;20804;-61
2023/09/26 01:30:44;;;;;;;8.37;5.73;;;11.10;99.90;;;;;;5076083;28;20424;-62
2023/09/26 01:33:16;;;;;;;6.70;5.43;;;11.10;99.90;;;;;;5076177;28;20471;-62
2023/09/26 01:35:43;;;;;;;5.83;5.33;;;11.00;99.90;;;;;;5076331;28;20522;-61
2023/09/26 01:38:09;;;;;;;7.60;6.43;;;11.00;99.90;;;;;;5075774;28;20482;-62
2023/09/26 01:40:36;;;;;;;7.70;6.07;;;11.00;99.90;;;;;;5076613;28;20439;-60
2023/09/26 01:43:05;;;;;;;6.77;5.53;;;10.90;99.90;;;;;;5075975;28;20467;-61
2023/09/26 01:45:31;;;;;;;6.87;6.17;;;10.90;99.90;;;;;;5076833;28;20983;-60
2023/09/26 01:48:00;;;;;;;6.37;5.67;;;10.90;99.90;;;;;;5076127;28;20441;-61
2023/09/26 01:50:28;;;;;;;6.83;5.87;;;10.90;99.90;;;;;;5076089;28;20447;-61
2023/09/26 01:52:55;;;;;;;8.77;5.47;;;10.90;99.90;;;;;;5075751;28;20471;-61
2023/09/26 01:55:23;;;;;;;5.90;5.40;;;10.80;99.90;;;;;;5075724;28;20442;-61
2023/09/26 01:57:50;;;;;;;6.57;5.93;;;10.80;99.90;;;;;;5075569;28;21022;-61
2023/09/26 02:00:19;;;;;;;5.97;5.30;;;10.80;99.90;;;;;;5075409;28;20439;-62
2023/09/26 02:02:47;;;;;;;7.83;6.10;;;10.80;99.90;;;;;;5076060;28;20468;-61
2023/09/26 02:05:16;;;;;;;6.70;5.83;;;10.80;99.90;;;;;;5075024;28;20443;-61
2023/09/26 02:07:43;;;;;;;6.90;6.30;;;10.80;99.90;;;;;;5078682;28;20872;-61
2023/09/26 02:10:10;;;;;;;6.40;5.80;;;10.70;99.90;;;;;;5075730;28;20959;-61
2023/09/26 02:12:39;;;;;;;7.43;6.57;;;10.70;99.90;;;;;;5076569;28;20455;-62
2023/09/26 02:15:08;;;;;;;7.00;5.87;;;10.70;99.90;;;;;;5077959;28;20859;-61
2023/09/26 02:17:37;;;;;;;6.90;5.40;;;10.70;99.90;;;;;;5081997;28;20475;-62
2023/09/26 02:20:08;;;;;;;10.90;6.20;;;10.70;99.90;;;;;;5078831;28;20205;-60
2023/09/26 02:22:36;;;;;;;8.13;6.00;;;10.60;99.90;;;;;;5079308;28;20460;-61
2023/09/26 02:25:03;;;;;;;9.20;5.30;;;10.60;99.90;;;;;;5089193;28;20439;-61
2023/09/26 02:27:30;;;;;;;6.57;5.97;;;10.60;99.90;;;;;;5087967;28;20515;-61
2023/09/26 02:29:57;;;;;;;5.70;5.20;;;10.60;99.90;;;;;;5091531;28;20200;-62
2023/09/26 02:32:25;;;;;;;6.30;5.70;;;10.60;99.90;;;;;;5091982;28;20225;-61
2023/09/26 02:34:53;;;;;;;6.47;5.87;;;10.50;99.90;;;;;;5091782;28;20478;-61
2023/09/26 02:37:19;;;;;;;6.43;5.38;;;10.50;99.90;;;;;;5078090;28;21023;-60
2023/09/26 02:39:46;;;;;;;6.37;5.77;;;10.50;99.90;;;;;;5074764;28;20208;-61
2023/09/26 02:42:14;;;;;;;6.13;5.63;;;10.40;99.90;;;;;;5074011;28;20969;-60
2023/09/26 02:44:41;;;;;;;6.10;5.30;;;10.40;99.90;;;;;;5074653;28;20439;-60
2023/09/26 02:47:08;;;;;;;7.60;6.00;;;10.40;99.90;;;;;;5074502;28;20444;-61
2023/09/26 02:49:35;;;;;;;5.90;5.40;;;10.40;99.90;;;;;;5075479;28;20526;-61
2023/09/26 02:52:03;;;;;;;6.80;6.13;;;10.40;99.90;;;;;;5074356;28;20553;-60
2023/09/26 02:54:30;;;;;;;6.30;5.77;;;10.40;99.90;;;;;;5075148;28;20815;-61
2023/09/26 02:56:58;;;;;;;6.85;5.72;;;10.40;99.90;;;;;;5075235;28;20444;-60
2023/09/26 02:59:24;;;;;;;6.57;5.80;;;10.40;99.90;;;;;;5074591;28;20213;-60
2023/09/26 03:01:51;;;;;;;7.88;6.63;;;10.40;99.90;;;;;;5074425;28;20459;-61
2023/09/26 03:04:18;;;;;;;8.90;5.60;;;10.40;99.90;;;;;;5074282;28;20201;-61
2023/09/26 03:06:45;;;;;;;7.37;6.67;;;10.40;99.90;;;;;;5073851;28;20447;-61
2023/09/26 03:09:15;;;;;;;7.43;6.70;;;10.40;99.90;;;;;;5074070;28;20435;-60
2023/09/26 03:11:41;;;;;;;6.63;6.03;;;10.40;99.90;;;;;;5074130;28;20240;-61
2023/09/26 03:14:08;;;;;;;8.07;6.50;;;10.40;99.90;;;;;;5074426;28;20197;-61
2023/09/26 03:16:35;;;;;;;6.05;5.43;;;10.40;99.90;;;;;;5074787;28;20446;-61
2023/09/26 03:19:02;;;;;;;7.13;5.67;;;10.40;99.90;;;;;;5075332;28;20235;-61
2023/09/26 03:21:28;;;;;;;7.53;6.27;;;10.40;99.90;;;;;;5074668;28;20467;-61
2023/09/26 03:23:55;;;;;;;6.30;5.70;;;10.40;99.90;;;;;;5073640;28;20450;-61
2023/09/26 03:26:23;;;;;;;6.30;5.60;;;10.40;99.90;;;;;;5073815;28;20570;-60
2023/09/26 03:28:50;;;;;;;6.83;6.20;;;10.30;99.90;;;;;;5073914;28;20435;-61
2023/09/26 03:31:17;;;;;;;7.40;6.70;;;10.30;99.90;;;;;;5074175;28;20494;-61
2023/09/26 03:33:44;;;;;;;7.57;6.05;;;10.30;99.90;;;;;;5073398;28;20937;-61
2023/09/26 03:36:11;;;;;;;7.28;6.57;;;10.30;99.90;;;;;;5073633;28;20201;-61
2023/09/26 03:38:38;;;;;;;6.60;5.93;;;10.30;99.90;;;;;;5073172;28;20670;-62
2023/09/26 03:41:06;;;;;;;7.73;6.93;;;10.30;99.90;;;;;;5073339;28;20955;-61
2023/09/26 03:43:34;;;;;;;7.33;6.63;;;10.30;99.90;;;;;;5073629;28;20443;-61
2023/09/26 03:46:06;;;;;;;7.05;6.45;;;10.30;99.90;;;;;;5073831;28;20444;-61
2023/09/26 03:48:34;;;;;;;8.63;6.80;;;10.30;99.90;;;;;;5073822;28;20200;-61
2023/09/26 03:51:08;;;;;;;6.38;5.85;;;10.30;99.90;;;;;;5073163;28;20510;-62
2023/09/26 03:53:35;;;;;;;7.20;6.37;;;10.30;99.90;;;;;;5073294;28;20197;-62
2023/09/26 03:56:02;;;;;;;7.40;6.70;;;10.30;99.90;;;;;;5073333;28;20439;-60
2023/09/26 03:58:29;;;;;;;8.10;7.30;;;10.20;99.90;;;;;;5073317;28;20217;-61
2023/09/26 04:01:07;;;;;;;10.90;6.85;;;10.30;99.90;;;;;;5089576;22;20447;-58
2023/09/26 04:03:33;;;;;;;7.97;6.93;;;10.30;99.90;;;;;;5012329;28;20301;-58
2023/09/26 04:06:00;;;;;;;7.55;6.82;;;10.20;99.90;;;;;;5013715;28;20442;-60
2023/09/26 04:08:27;;;;;;;7.80;7.10;;;10.20;99.90;;;;;;5014482;28;20669;-60
2023/09/26 04:12:15;;;;;;;7.37;6.47;;;10.20;99.90;;;;;;5174767;27;20566;-59
2023/09/26 04:14:42;;;;;;;7.47;6.50;;;10.20;99.90;;;;;;5173051;27;20441;-59
2023/09/26 04:17:09;;;;;;;7.30;6.70;;;10.20;99.90;;;;;;5172755;27;20434;-59
2023/09/26 04:19:35;;;;;;;7.60;6.90;;;10.20;99.90;;;;;;5172651;27;20197;-58
2023/09/26 04:22:03;;;;;;;7.87;7.10;;;10.20;99.90;;;;;;5172672;27;20459;-58
2023/09/26 04:24:30;;;;;;;8.03;6.97;;;10.20;99.90;;;;;;5173066;27;20447;-58
2023/09/26 04:26:57;;;;;;;7.90;7.20;;;10.10;99.90;;;;;;5172823;27;20505;-59
2023/09/26 04:29:25;;;;;;;8.10;6.82;;;10.10;99.90;;;;;;5174213;27;20769;-59
2023/09/26 04:31:52;;;;;;;8.60;7.22;;;10.10;99.90;;;;;;5173224;27;20220;-58
2023/09/26 04:34:18;;;;;;;9.50;6.63;;;10.10;99.90;;;;;;5172893;27;20198;-58
2023/09/26 04:36:45;;;;;;;7.18;6.47;;;10.10;99.90;;;;;;5172865;27;20500;-60
2023/09/26 04:39:12;;;;;;;8.90;7.87;;;10.00;99.90;;;;;;5172757;27;20201;-60
2023/09/26 04:41:39;;;;;;;11.30;7.97;;;10.00;99.90;;;;;;5172498;27;20451;-60
2023/09/26 04:44:07;;;;;;;7.97;7.28;;;10.00;99.90;;;;;;5172428;27;20573;-60
2023/09/26 04:46:35;;;;;;;8.68;7.38;;;10.00;99.90;;;;;;5172463;27;20202;-59
2023/09/26 04:49:02;;;;;;;9.30;6.82;;;10.00;99.90;;;;;;5172435;27;20539;-60
2023/09/26 04:51:28;;;;;;;10.13;7.60;;;10.00;99.90;;;;;;5172478;27;20309;-59
2023/09/26 04:53:56;;;;;;;8.32;7.50;;;9.90;99.90;;;;;;5172320;27;20431;-61
2023/09/26 04:56:23;;;;;;;9.07;7.90;;;9.90;99.90;;;;;;5172336;27;20198;-59
2023/09/26 04:58:50;;;;;;;8.97;6.83;;;10.00;99.90;;;;;;5172216;27;20204;-60
2023/09/26 05:01:17;;;;;;;8.82;7.95;;;9.90;99.90;;;;;;5172416;27;20512;-60
2023/09/26 05:03:45;;;;;;;13.13;6.90;;;9.90;99.90;;;;;;5172119;27;20197;-60
2023/09/26 05:06:13;;;;;;;9.80;8.80;;;10.00;99.90;;;;;;5171808;27;21003;-59
2023/09/26 05:08:41;;;;;;;8.43;7.47;;;9.90;99.90;;;;;;5171761;27;20202;-59
2023/09/26 05:11:12;;;;;;;8.80;7.90;;;9.90;99.90;;;;;;5171487;27;20225;-60
2023/09/26 05:13:39;;;;;;;8.33;7.53;;;9.90;99.90;;;;;;5172020;27;20798;-59
2023/09/26 05:16:08;;;;;;;9.70;8.35;;;9.90;99.90;;;;;;5172056;27;20456;-59
2023/09/26 05:18:36;;;;;;;8.40;7.60;;;9.90;99.90;;;;;;5171998;27;20202;-60
2023/09/26 05:21:06;;;;;;;8.80;7.10;;;9.90;99.90;;;;;;5172103;27;20478;-59
2023/09/26 05:23:33;;;;;;;9.13;8.23;;;9.80;99.90;;;;;;5158933;27;20178;-59
2023/09/26 05:26:05;;;;;;;10.20;7.65;;;9.80;99.90;;;;;;5158198;27;20204;-59
2023/09/26 05:28:32;;;;;;;8.77;7.25;;;9.90;99.90;;;;;;5157932;27;20643;-59
2023/09/26 05:30:59;;;;;;;8.77;7.88;;;9.80;99.90;;;;;;5157856;27;20226;-59
2023/09/26 05:33:25;;;;;;;11.73;8.68;;;9.90;99.90;;;;;;5159329;27;20285;-59
2023/09/26 05:35:53;;;;;;;10.65;8.65;;;9.90;99.90;;;;;;5157666;27;20201;-60
2023/09/26 05:38:21;;;;;;;10.48;8.77;;;9.90;99.90;;;;;;5157925;27;20198;-59
2023/09/26 05:40:50;;;;;;;11.00;7.72;;;9.90;99.90;;;;;;5158086;27;20255;-58
2023/09/26 05:43:17;;;;;;;10.10;9.00;;;10.00;99.90;;;;;;5160067;27;20201;-59
2023/09/26 05:45:44;;;;;;;10.50;8.43;;;10.00;99.90;;;;;;5157864;27;20435;-59
2023/09/26 05:48:10;;;;;;;10.83;9.20;;;10.10;99.90;;;;;;5158302;27;20435;-60
2023/09/26 05:50:37;;;;;;;9.03;8.20;;;10.10;99.90;;;;;;5157783;27;20483;-60
2023/09/26 05:53:04;;;;;;;9.33;7.40;;;10.20;99.90;;;;;;5157820;27;20459;-59
2023/09/26 05:55:32;;;;;;;7.67;6.93;;;10.30;99.90;;;;;;5157467;27;20438;-60
2023/09/26 05:57:59;;;;;;;9.60;7.77;;;10.30;99.90;;;;;;5157544;27;20436;-60
2023/09/26 06:00:26;;;;;;;9.77;7.67;;;10.40;99.90;;;;;;5157446;27;20443;-59
2023/09/26 06:02:54;;;;;;;8.73;8.00;;;10.50;99.90;;;;;;5158016;27;20470;-59
2023/09/26 06:05:20;;;;;;;12.70;7.80;;;10.50;99.90;;;;;;5160450;27;20439;-58
2023/09/26 06:07:49;;;;;;;9.00;8.07;;;10.60;99.90;;;;;;5167096;27;20533;-60
2023/09/26 06:10:16;;;;;;;10.93;8.20;;;10.70;99.90;;;;;;5164944;27;20475;-59
2023/09/26 06:12:44;;;;;;;9.47;7.40;;;10.80;99.90;;;;;;5163908;27;20483;-58
2023/09/26 06:15:11;;;;;;;8.30;7.50;;;10.90;99.90;;;;;;5165508;27;20935;-60
2023/09/26 06:17:39;;;;;;;13.40;8.33;;;11.00;99.90;;;;;;5164210;27;20444;-58
2023/09/26 06:20:08;;;;;;;6.57;5.97;;;11.10;99.90;;;;;;5165304;27;20442;-60
2023/09/26 06:22:35;;;;;;;12.00;7.90;;;11.20;99.90;;;;;;5166160;27;20488;-59
2023/09/26 06:25:04;;;;;;;9.80;8.33;;;11.20;99.90;;;;;;5160930;27;20868;-61
2023/09/26 06:27:34;;;;;;;7.57;6.73;;;11.30;99.90;;;;;;5157114;27;20440;-58
2023/09/26 06:30:04;;;;;;;11.37;7.47;;;11.40;99.90;;;;;;5157139;27;20429;-57
2023/09/26 06:32:31;;;;;;;8.70;6.63;;;11.40;99.90;;;;;;5156923;27;20510;-60
2023/09/26 06:35:00;;;;;;;10.13;6.40;;;11.60;99.90;;;;;;5159279;27;20805;-59
2023/09/26 06:37:26;;;;;;;8.10;6.63;;;11.60;99.90;;;;;;5166389;27;20449;-59
2023/09/26 06:39:54;;;;;;;6.83;6.17;;;11.70;99.90;;;;;;5161013;27;20442;-59
2023/09/26 06:42:21;;;;;;;9.10;6.70;;;11.80;99.90;;;;;;5159917;27;20462;-59
2023/09/26 06:44:49;;;;;;;7.97;6.60;;;11.90;99.90;;;;;;5159442;27;20440;-59
2023/09/26 06:47:18;;;;;;;7.60;5.80;;;12.00;99.90;;;;;;5159979;27;20465;-59
2023/09/26 06:49:46;;;;;;;7.37;6.23;;;12.20;99.90;;;;;;5157050;27;20500;-60
2023/09/26 06:52:13;;;;;;;6.10;5.50;;;12.20;99.90;;;;;;5156697;27;20532;-60
2023/09/26 06:54:40;;;;;;;10.60;5.83;;;12.30;99.90;;;;;;5156688;27;20446;-59
2023/09/26 06:57:08;;;;;;;6.20;5.30;;;12.40;99.90;;;;;;5158409;27;20461;-59
2023/09/26 06:59:35;;;;;;;8.13;6.20;;;12.50;99.90;;;;;;5156534;27;20835;-59
2023/09/26 07:02:02;;;;;;;6.50;5.80;;;12.60;99.90;;;;;;5156062;27;20467;-60
2023/09/26 07:04:30;;;;;;;7.10;6.40;;;12.70;99.90;;;;;;5156122;27;20447;-60
2023/09/26 07:06:59;;;;;;;7.90;6.37;;;12.80;99.90;;;;;;5156586;27;20441;-59
2023/09/26 07:09:26;;;;;;;8.13;5.40;;;12.90;99.90;;;;;;5156273;27;20552;-59
2023/09/26 07:11:53;;;;;;;10.07;6.40;;;13.00;99.90;;;;;;5155425;27;20497;-59
2023/09/26 07:14:20;;;;;;;8.80;5.83;;;13.10;99.90;;;;;;5155483;27;20495;-58
2023/09/26 07:16:47;;;;;;;7.57;6.50;;;13.20;99.90;;;;;;5156579;27;20849;-60
2023/09/26 07:19:14;;;;;;;6.80;5.53;;;13.40;99.90;;;;;;5156124;27;20450;-59
2023/09/26 07:21:42;;;;;;;8.30;5.80;;;13.40;99.90;;;;;;5156785;27;20456;-59
2023/09/26 07:24:09;;;;;;;7.53;5.93;;;13.50;99.90;;;;;;5156451;27;20465;-59
2023/09/26 07:26:36;;;;;;;6.23;5.63;;;13.60;99.90;;;;;;5155397;27;20981;-59
2023/09/26 07:29:03;;;;;;;6.00;5.50;;;13.70;99.90;;;;;;5155559;27;20950;-60
2023/09/26 07:31:31;;;;;;;5.37;4.87;;;13.80;99.90;;;;;;5155538;27;21017;-60
2023/09/26 07:33:57;;;;;;;8.50;5.53;;;13.90;99.90;;;;;;5156672;27;20483;-60
2023/09/26 07:36:24;;;;;;;6.30;5.33;;;14.10;99.90;;;;;;5156268;27;20435;-60
2023/09/26 07:38:52;;;;;;;6.00;5.40;;;14.20;99.90;;;;;;5155673;27;20436;-58
2023/09/26 07:41:19;;;;;;;6.40;5.67;;;14.30;99.90;;;;;;5156081;27;20462;-59
2023/09/26 07:43:46;;;;;;;7.80;6.37;;;14.40;99.90;;;;;;5155548;27;20439;-60
2023/09/26 07:46:14;;;;;;;5.67;5.13;;;14.50;99.90;;;;;;5155880;27;20470;-60
2023/09/26 07:48:42;;;;;;;5.43;4.87;;;14.60;99.90;;;;;;5155909;27;20883;-58
2023/09/26 07:51:10;;;;;;;5.83;4.47;;;14.70;99.90;;;;;;5155959;27;20546;-59
2023/09/26 07:53:38;;;;;;;8.37;5.80;;;14.80;99.90;;;;;;5156200;27;20432;-60
2023/09/26 07:56:06;;;;;;;6.27;5.60;;;15.00;99.90;;;;;;5156665;27;20792;-59
2023/09/26 07:58:33;;;;;;;6.80;6.13;;;15.10;99.90;;;;;;5156687;27;20804;-60
2023/09/26 08:01:00;;;;;;;7.37;5.10;;;15.30;99.90;;;;;;5155848;27;20940;-60
2023/09/26 08:03:27;;;;;;;6.20;5.40;;;15.40;99.90;;;;;;5156831;27;20438;-59
2023/09/26 08:05:59;;;;;;;7.30;5.00;;;15.50;99.90;;;;;;5155405;27;20440;-60
2023/09/26 08:08:26;;;;;;;6.87;5.37;;;15.70;99.90;;;;;;5157275;27;20432;-60
2023/09/26 08:10:53;;;;;;;5.50;5.00;;;15.80;99.90;;;;;;5157676;27;20448;-60
2023/09/26 08:13:21;;;;;;;6.23;5.13;;;15.90;99.90;;;;;;5155768;27;20481;-60
2023/09/26 08:15:48;;;;;;;7.07;4.73;;;16.00;99.90;;;;;;5155099;27;20444;-60
2023/09/26 08:18:15;;;;;;;5.70;5.10;;;16.20;99.90;;;;;;5154796;27;20433;-59
2023/09/26 08:20:41;;;;;;;5.67;4.63;;;16.30;99.90;;;;;;5155057;27;20591;-59
2023/09/26 08:23:08;;;;;;;7.20;4.80;;;16.50;99.90;;;;;;5155175;27;20463;-59
2023/09/26 08:25:36;;;;;;;5.60;4.80;;;16.70;99.90;;;;;;5154756;27;20786;-59
2023/09/26 08:28:04;;;;;;;5.53;4.30;;;16.80;99.90;;;;;;5155345;27;20443;-61
2023/09/26 08:30:33;;;;;;;4.83;4.40;;;17.00;99.90;;;;;;5155327;27;20449;-59
2023/09/26 08:32:59;;;;;;;6.77;4.33;;;17.10;99.90;;;;;;5155262;27;20482;-61
2023/09/26 08:35:27;;;;;;;6.93;4.63;;;17.40;99.90;;;;;;5154995;27;20443;-58
2023/09/26 08:37:54;;;;;;;7.40;4.73;;;17.50;99.90;;;;;;5154485;27;20447;-59
2023/09/26 08:40:25;;;;;;;5.40;4.73;;;17.80;99.90;;;;;;5155008;27;20451;-59
2023/09/26 08:42:55;;;;;;;8.43;5.07;;;17.90;99.90;;;;;;5154833;27;20459;-61
2023/09/26 08:45:23;;;;;;;5.50;4.97;;;18.00;99.60;;;;;;5155236;27;20446;-60
2023/09/26 08:47:54;;;;;;;5.40;4.90;;;18.20;99.10;;;;;;5155395;27;20434;-61
2023/09/26 08:50:22;;;;;;;8.00;4.97;;;18.30;98.40;;;;;;5155997;27;20425;-60
2023/09/26 08:52:48;;;;;;;5.80;4.93;;;18.50;97.90;;;;;;5160659;27;20479;-61
2023/09/26 08:55:15;;;;;;;5.47;4.77;;;18.60;97.50;;;;;;5162119;27;20436;-61
2023/09/26 08:57:43;;;;;;;7.30;4.47;;;18.70;97.00;;;;;;5163252;27;20450;-60
2023/09/26 09:00:13;;;;;;;5.23;4.73;;;18.80;96.40;;;;;;5164763;27;20462;-60
2023/09/26 09:02:39;;;;;;;8.10;5.27;;;18.90;95.80;;;;;;5164431;27;20471;-60
2023/09/26 09:05:10;;;;;;;10.17;5.57;;;19.00;95.30;;;;;;5166256;27;20447;-61
2023/09/26 09:07:39;;;;;;;5.97;4.70;;;19.00;94.90;;;;;;5162730;27;20440;-60
2023/09/26 09:10:08;;;;;;;8.43;4.07;;;19.10;94.60;;;;;;5171795;27;20477;-60
2023/09/26 09:12:37;;;;;;;5.40;4.20;;;19.10;94.10;;;;;;5170454;27;20488;-60
2023/09/26 09:15:18;;;;;;;5.10;4.07;;;19.20;93.60;;;;;;5171828;27;20540;-61
2023/09/26 09:17:46;;;;;;;6.30;4.37;;;19.30;93.00;;;;;;5167079;27;20926;-60
2023/09/26 09:20:16;;;;;;;5.80;4.30;;;19.30;92.30;;;;;;5158237;27;20487;-60
2023/09/26 09:22:46;;;;;;;10.73;4.00;;;19.40;92.00;;;;;;5158222;27;20457;-60
2023/09/26 09:25:13;;;;;;;6.20;4.50;;;19.40;91.50;;;;;;5157598;27;20449;-60
2023/09/26 09:27:43;;;;;;;5.80;4.67;;;19.50;91.50;;;;;;5159626;27;20787;-60
2023/09/26 09:30:12;;;;;;;5.20;4.70;;;19.50;90.60;;;;;;5158457;27;20487;-60
2023/09/26 09:32:40;;;;;;;6.07;4.97;;;19.60;90.20;;;;;;5157998;27;20482;-59
2023/09/26 09:35:10;;;;;;;6.07;4.70;;;19.70;89.50;;;;;;5157988;27;20442;-61
2023/09/26 09:37:38;;;;;;;5.23;3.70;;;19.80;88.30;;;;;;5157586;27;20958;-60
2023/09/26 09:40:05;;;;;;;7.63;3.97;;;19.80;87.50;;;;;;5158445;27;20435;-60
2023/09/26 09:42:32;;;;;;;7.13;3.90;;;19.80;86.90;;;;;;5157789;27;20474;-61
2023/09/26 09:44:59;;;;;;;5.53;3.50;;;19.90;86.00;;;;;;5157436;27;20441;-60
2023/09/26 09:47:30;;;;;;;3.33;2.93;;;20.00;85.00;;;;;;5156938;27;20531;-60
2023/09/26 09:50:00;;;;;;;4.37;3.33;;;20.00;83.90;;;;;;5157222;27;20433;-61
2023/09/26 09:52:31;;;;;;;7.90;4.93;;;20.10;84.40;;;;;;5157223;27;20503;-61
2023/09/26 09:55:03;;;;;;;4.60;3.60;;;20.20;83.30;;;;;;5157248;27;20450;-59
2023/09/26 09:57:34;;;;;;;5.07;3.97;;;20.30;82.70;;;;;;5157380;27;20427;-61
2023/09/26 10:00:02;;;;;;;6.13;3.97;;;20.30;82.20;;;;;;5157669;27;20496;-61
2023/09/26 10:02:29;;;;;;;6.20;4.30;;;20.40;81.60;;;;;;5157961;27;20455;-60
2023/09/26 10:04:56;;;;;;;4.77;4.07;;;20.50;81.00;;;;;;5157668;27;20450;-59
2023/09/26 10:07:25;;;;;;;4.10;3.50;;;20.60;80.40;;;;;;5157262;27;20444;-60
2023/09/26 10:09:53;;;;;;;7.40;4.20;;;20.70;79.70;;;;;;5157481;27;20447;-60
2023/09/26 10:12:24;;;;;;;5.73;3.67;;;20.70;79.00;;;;;;5157898;27;20493;-61
2023/09/26 10:14:51;;;;;;;5.37;3.90;;;20.80;78.20;;;;;;5158450;27;20417;-61
2023/09/26 10:17:19;;;;;;;3.93;3.53;;;20.90;77.30;;;;;;5157161;27;20442;-60
2023/09/26 10:19:46;;;;;;;3.90;3.60;;;20.90;76.20;;;;;;5156984;27;20498;-61
2023/09/26 10:22:17;;;;;;;5.30;3.20;;;21.00;75.50;;;;;;5157401;27;20461;-61
2023/09/26 10:24:51;;;;;;;3.50;2.83;;;21.00;74.90;;;;;;5157781;27;20445;-61
2023/09/26 10:27:38;;;;;;;5.00;3.50;;;21.10;74.30;;;;;;5156979;27;20438;-61
2023/09/26 10:30:07;;;;;;;4.17;2.97;;;21.30;73.50;;;;;;5158331;27;20462;-60
2023/09/26 10:32:35;;;;;;;5.53;3.03;;;21.30;73.00;;;;;;5157533;27;20841;-61
2023/09/26 10:35:28;;;;;;;3.60;2.60;;;21.40;72.20;;;;;;5157222;27;20450;-61
2023/09/26 10:38:07;;;;;;;3.83;3.20;;;21.50;71.10;;;;;;5157479;27;20439;-60
2023/09/26 10:40:33;;;;;;;5.20;3.60;;;21.60;70.60;;;;;;5156944;27;20430;-61
2023/09/26 10:43:02;;;;;;;3.50;3.20;;;21.60;70.10;;;;;;5156268;27;20823;-61
2023/09/26 10:45:29;;;;;;;4.30;3.47;;;21.70;69.40;;;;;;5156142;27;20841;-61
2023/09/26 10:47:56;;;;;;;4.73;2.93;;;21.70;68.90;;;;;;5156310;27;20441;-61
2023/09/26 10:50:24;;;;;;;4.57;3.20;;;21.80;68.50;;;;;;5156028;27;20442;-61
2023/09/26 10:52:51;;;;;;;6.43;3.57;;;21.80;67.90;;;;;;5155638;27;20509;-60
2023/09/26 10:55:20;;;;;;;4.97;3.40;;;21.90;67.30;;;;;;5156494;27;20442;-61
2023/09/26 10:57:47;;;;;;;3.37;3.00;;;22.00;66.70;;;;;;5155648;27;20450;-61
2023/09/26 11:00:17;;;;;;;6.00;3.20;;;22.00;66.30;;;;;;5156291;27;20438;-61
2023/09/26 11:02:44;;;;;;;3.60;2.57;;;22.10;65.80;;;;;;5156725;27;20463;-60
2023/09/26 11:05:13;;;;;;;3.40;2.80;;;22.20;65.20;;;;;;5155892;27;20948;-61
2023/09/26 11:07:41;;;;;;;5.00;2.97;;;22.20;64.70;;;;;;5156129;27;20447;-60
2023/09/26 11:10:12;;;;;;;3.73;2.80;;;22.30;64.40;;;;;;5156303;27;20541;-60
2023/09/26 11:12:39;;;;;;;4.20;3.10;;;22.40;64.10;;;;;;5156223;27;20482;-61
2023/09/26 11:15:08;;;;;;;4.83;3.00;;;22.40;63.60;;;;;;5156019;27;20436;-61
2023/09/26 11:17:36;;;;;;;3.30;2.80;;;22.40;63.40;;;;;;5156184;27;20488;-61
2023/09/26 11:20:05;;;;;;;4.30;2.70;;;22.40;63.00;;;;;;5156015;27;20964;-61
2023/09/26 11:22:44;;;;;;;5.40;2.87;;;22.50;62.70;;;;;;5156439;27;20470;-61
2023/09/26 11:25:11;;;;;;;5.17;2.23;;;22.50;62.40;;;;;;5157488;27;20445;-61
2023/09/26 11:27:39;;;;;;;5.90;2.60;;;22.60;62.20;;;;;;5159452;27;20439;-61
2023/09/26 11:30:09;;;;;;;3.93;3.23;;;22.60;61.80;;;;;;5162112;27;20439;-62
2023/09/26 11:32:37;;;;;;;3.03;2.73;;;22.70;61.60;;;;;;5162826;27;20474;-62
2023/09/26 11:35:06;;;;;;;3.60;2.90;;;22.70;61.40;;;;;;5162613;27;20538;-60
2023/09/26 11:37:33;;;;;;;3.20;2.87;;;22.80;61.10;;;;;;5166548;27;20465;-61
2023/09/26 11:40:02;;;;;;;3.13;2.40;;;22.90;61.00;;;;;;5161034;27;20450;-62
2023/09/26 11:42:29;;;;;;;3.17;2.37;;;22.90;60.70;;;;;;5157007;27;20467;-61
2023/09/26 11:44:56;;;;;;;2.50;1.70;;;23.00;60.40;;;;;;5155014;27;20435;-60
2023/09/26 11:47:24;;;;;;;3.10;2.70;;;23.10;60.20;;;;;;5155297;27;20438;-61
2023/09/26 11:49:52;;;;;;;4.73;2.87;;;23.10;59.90;;;;;;5155154;27;20439;-62
2023/09/26 11:52:19;;;;;;;2.47;2.27;;;23.20;59.80;;;;;;5155038;27;20451;-62
2023/09/26 11:54:46;;;;;;;3.27;2.47;;;23.20;59.50;;;;;;5155190;27;20435;-61
2023/09/26 11:57:14;;;;;;;4.03;2.20;;;23.20;59.50;;;;;;5155207;27;20450;-60
2023/09/26 11:59:41;;;;;;;2.90;2.70;;;23.20;59.40;;;;;;5155401;27;20442;-61
2023/09/26 12:02:09;;;;;;;2.70;2.50;;;23.20;60.00;;;;;;5154956;27;21028;-61
2023/09/26 12:04:35;;;;;;;3.60;2.80;;;23.20;59.30;;;;;;5155345;27;20448;-61
2023/09/26 12:07:05;;;;;;;4.60;2.37;;;23.30;59.40;;;;;;5155194;27;20604;-62
2023/09/26 12:09:33;;;;;;;5.30;2.37;;;23.30;59.30;;;;;;5155452;27;20487;-62
2023/09/26 12:12:00;;;;;;;4.40;2.60;;;23.40;59.20;;;;;;5154919;27;20467;-61
2023/09/26 12:14:26;;;;;;;2.53;2.33;;;23.60;59.20;;;;;;5154499;27;20480;-62
2023/09/26 12:16:53;;;;;;;2.80;2.30;;;23.70;59.10;;;;;;5155196;27;20443;-62
2023/09/26 12:19:21;;;;;;;2.40;2.20;;;23.70;58.80;;;;;;5154792;27;20431;-61
2023/09/26 12:21:48;;;;;;;2.50;2.30;;;23.70;58.50;;;;;;5154437;27;20525;-62
2023/09/26 12:24:16;;;;;;;2.47;2.27;;;23.80;58.30;;;;;;5154716;27;20432;-61
2023/09/26 12:26:46;;;;;;;2.70;2.20;;;23.70;58.30;;;;;;5155173;27;20440;-61
2023/09/26 12:29:13;;;;;;;4.33;2.50;;;23.70;58.20;;;;;;5155483;27;20448;-61
2023/09/26 12:31:41;;;;;;;2.53;2.33;;;23.70;58.20;;;;;;5155179;27;20460;-61
2023/09/26 12:34:08;;;;;;;3.40;3.00;;;23.70;58.10;;;;;;5158132;27;21002;-61
2023/09/26 12:36:34;;;;;;;3.03;2.60;;;23.70;58.10;;;;;;5158578;27;20439;-60
2023/09/26 12:39:02;;;;;;;2.13;2.03;;;23.80;58.10;;;;;;5159465;27;20446;-61
2023/09/26 12:41:30;;;;;;;4.80;2.30;;;23.80;57.90;;;;;;5159887;27;20459;-61
2023/09/26 12:43:58;;;;;;;2.40;2.20;;;23.90;57.80;;;;;;5158550;27;20431;-61
2023/09/26 12:46:25;;;;;;;2.17;1.97;;;23.90;57.40;;;;;;5159399;27;20440;-60
2023/09/26 12:48:51;;;;;;;2.30;2.10;;;23.90;57.50;;;;;;5159092;27;20443;-61
2023/09/26 12:51:18;;;;;;;2.90;2.27;;;23.90;57.50;;;;;;5158875;27;20462;-61